Time;durP1;ratioP1;P1;durP2;ratioP2;P2;SDS_P1;SDS_P2;PMS_P1;PMS_P2;Temp;Humidity;BMP_temperature;BMP_pressure;BME280_temperature;BME280_humidity;BME280_pressure;Samples;Min_cycle;Max_cycle;Signal;HPM_P1;HPM_P2
2022/09/13 00:00:49;;;;;;;7.25;4.18;;;17.40;99.90;;;;;;5097331;28;20448;-51
2022/09/13 00:03:15;;;;;;;4.63;4.15;;;17.50;99.90;;;;;;5110127;28;20066;-51
2022/09/13 00:05:41;;;;;;;7.57;4.22;;;17.50;99.90;;;;;;5110525;28;20479;-55
2022/09/13 00:08:07;;;;;;;9.63;4.15;;;17.50;99.90;;;;;;5111646;28;20027;-50
2022/09/13 00:10:36;;;;;;;6.18;4.28;;;17.50;99.90;;;;;;5084186;28;20515;-51
2022/09/13 00:13:02;;;;;;;6.50;3.90;;;17.50;99.90;;;;;;5076735;28;20043;-50
2022/09/13 00:15:28;;;;;;;7.43;4.22;;;17.60;99.90;;;;;;5079039;28;20089;-54
2022/09/13 00:17:55;;;;;;;5.65;4.22;;;17.50;99.90;;;;;;5079376;28;20027;-50
2022/09/13 00:20:21;;;;;;;6.32;3.97;;;17.50;99.90;;;;;;5075911;28;20082;-50
2022/09/13 00:22:46;;;;;;;5.03;4.53;;;17.40;99.90;;;;;;5079417;28;20025;-51
2022/09/13 00:25:12;;;;;;;8.52;4.78;;;17.40;99.90;;;;;;5079136;28;20087;-52
2022/09/13 00:27:38;;;;;;;6.03;4.43;;;17.40;99.90;;;;;;5078142;28;20430;-53
2022/09/13 00:30:06;;;;;;;7.65;4.80;;;17.40;99.90;;;;;;5064989;28;20046;-52
2022/09/13 00:32:33;;;;;;;6.65;4.43;;;17.40;99.90;;;;;;5074585;28;20031;-51
2022/09/13 00:34:59;;;;;;;6.70;3.85;;;17.40;99.90;;;;;;5077509;28;20031;-50
2022/09/13 00:37:25;;;;;;;7.70;4.85;;;17.40;99.90;;;;;;5063230;28;20039;-51
2022/09/13 00:39:51;;;;;;;9.77;4.35;;;17.30;99.90;;;;;;5078498;28;20039;-52
2022/09/13 00:42:17;;;;;;;7.20;4.45;;;17.30;99.90;;;;;;5100037;28;20543;-50
2022/09/13 00:45:11;;;;;;;7.47;4.38;;;17.20;99.90;;;;;;5103441;28;20038;-50
2022/09/13 00:47:44;;;;;;;5.47;3.97;;;17.20;99.90;;;;;;5097772;28;20035;-52
2022/09/13 00:50:28;;;;;;;7.95;4.65;;;17.10;99.90;;;;;;5105765;28;20111;-54
2022/09/13 00:53:08;;;;;;;5.90;4.55;;;17.00;99.90;;;;;;5105928;28;20375;-53
2022/09/13 00:55:57;;;;;;;5.50;4.60;;;17.00;99.90;;;;;;5101470;28;20363;-49
2022/09/13 00:58:31;;;;;;;5.90;4.40;;;17.00;99.90;;;;;;5108481;28;20028;-52
2022/09/13 01:00:58;;;;;;;7.85;4.43;;;16.90;99.90;;;;;;5105196;28;20026;-50
2022/09/13 01:03:27;;;;;;;6.65;4.30;;;16.80;99.90;;;;;;5084121;28;20054;-51
2022/09/13 01:05:59;;;;;;;5.97;4.28;;;16.70;99.90;;;;;;5103265;28;20085;-52
2022/09/13 01:08:30;;;;;;;6.30;4.63;;;16.80;99.90;;;;;;5101334;28;20032;-52
2022/09/13 01:10:58;;;;;;;5.13;4.40;;;16.70;99.90;;;;;;5114691;28;20264;-48
2022/09/13 01:13:30;;;;;;;5.55;4.03;;;16.70;99.90;;;;;;5132552;27;20055;-51
2022/09/13 01:15:57;;;;;;;4.75;4.10;;;16.70;99.90;;;;;;5147841;27;20038;-52
2022/09/13 01:18:23;;;;;;;7.40;4.78;;;16.70;99.90;;;;;;5145370;27;20026;-52
2022/09/13 01:21:11;;;;;;;9.48;4.80;;;16.70;99.90;;;;;;5105451;28;20479;-53
2022/09/13 01:23:54;;;;;;;14.80;6.40;;;16.80;99.90;;;;;;5097989;28;20450;-51
2022/09/13 01:26:48;;;;;;;9.30;4.10;;;16.80;99.90;;;;;;5097111;28;20023;-51
2022/09/13 01:29:27;;;;;;;6.28;4.55;;;16.90;99.90;;;;;;5102436;28;20422;-53
2022/09/13 01:32:06;;;;;;;6.57;4.22;;;16.80;99.90;;;;;;5105482;28;20434;-49
2022/09/13 01:35:07;;;;;;;11.18;5.32;;;16.90;99.90;;;;;;5092910;28;20552;-50
2022/09/13 01:37:56;;;;;;;4.97;4.43;;;16.90;99.90;;;;;;5096987;28;20027;-54
2022/09/13 01:40:42;;;;;;;10.88;4.90;;;16.80;99.90;;;;;;5098172;28;20885;-49
2022/09/13 01:43:40;;;;;;;9.18;4.80;;;16.70;99.90;;;;;;5098156;28;20181;-50
2022/09/13 01:46:31;;;;;;;10.63;5.45;;;16.70;99.90;;;;;;5079889;28;20669;-51
2022/09/13 01:49:13;;;;;;;5.57;4.78;;;16.80;99.90;;;;;;5102623;28;20027;-52
2022/09/13 01:52:21;;;;;;;8.10;4.72;;;16.80;99.90;;;;;;5119077;27;20039;-50
2022/09/13 01:55:09;;;;;;;7.88;4.65;;;16.90;99.90;;;;;;5054344;28;20051;-51
2022/09/13 01:58:06;;;;;;;9.10;5.30;;;16.90;99.90;;;;;;5071272;28;20090;-52
2022/09/13 02:00:38;;;;;;;6.13;4.57;;;16.90;99.90;;;;;;5069663;28;20052;-52
2022/09/13 02:03:13;;;;;;;7.20;4.90;;;16.70;99.90;;;;;;5070654;28;20028;-53
2022/09/13 02:05:58;;;;;;;6.53;5.10;;;16.60;99.90;;;;;;5071060;28;20043;-50
2022/09/13 02:08:27;;;;;;;7.60;4.78;;;16.50;99.90;;;;;;5070494;28;20141;-52
2022/09/13 02:11:04;;;;;;;6.53;5.22;;;16.50;99.90;;;;;;5053079;28;20125;-53
2022/09/13 02:13:36;;;;;;;5.75;4.97;;;16.40;99.90;;;;;;5070276;28;20456;-52
2022/09/13 02:16:11;;;;;;;8.35;4.60;;;16.40;99.90;;;;;;5070479;28;20033;-48
2022/09/13 02:18:42;;;;;;;6.95;5.07;;;16.40;99.90;;;;;;5068942;28;20062;-48
2022/09/13 02:21:19;;;;;;;7.38;4.95;;;16.40;99.90;;;;;;5070088;28;20040;-52
2022/09/13 02:24:00;;;;;;;7.38;5.30;;;16.30;99.90;;;;;;5070918;28;20049;-54
2022/09/13 02:26:28;;;;;;;6.05;4.78;;;16.40;99.90;;;;;;5070106;28;20064;-50
2022/09/13 02:28:56;;;;;;;6.32;4.65;;;16.40;99.90;;;;;;5070256;28;20037;-53
2022/09/13 02:31:28;;;;;;;7.82;4.72;;;16.30;99.90;;;;;;5098426;27;20035;-49
2022/09/13 02:33:59;;;;;;;9.48;4.90;;;16.30;99.90;;;;;;5138737;27;20606;-51
2022/09/13 02:36:34;;;;;;;6.53;4.70;;;16.20;99.90;;;;;;5139579;27;20027;-53
2022/09/13 02:39:05;;;;;;;7.57;4.50;;;16.00;99.90;;;;;;5139402;27;20426;-53
2022/09/13 02:41:43;;;;;;;6.57;5.30;;;16.00;99.90;;;;;;5139304;27;20056;-51
2022/09/13 02:44:18;;;;;;;5.88;5.05;;;15.90;99.90;;;;;;5117472;27;20432;-53
2022/09/13 02:47:04;;;;;;;6.55;4.82;;;15.90;99.90;;;;;;5149380;27;20027;-50
2022/09/13 02:49:38;;;;;;;8.48;5.20;;;15.80;99.90;;;;;;5126231;28;20039;-51
2022/09/13 02:52:11;;;;;;;6.50;5.15;;;15.90;99.90;;;;;;5139609;27;20023;-54
2022/09/13 02:55:02;;;;;;;5.90;5.03;;;16.00;99.90;;;;;;5142101;27;20030;-50
2022/09/13 02:57:30;;;;;;;7.15;4.95;;;16.00;99.90;;;;;;5139756;27;20035;-49
2022/09/13 02:59:56;;;;;;;8.32;4.85;;;16.00;99.90;;;;;;5144351;27;20109;-49
2022/09/13 03:02:26;;;;;;;6.70;5.38;;;16.00;99.90;;;;;;5141526;27;20172;-54
2022/09/13 03:04:52;;;;;;;6.53;5.50;;;16.00;99.90;;;;;;5143944;27;20035;-50
2022/09/13 03:07:18;;;;;;;8.90;5.25;;;16.00;99.90;;;;;;5143269;27;20034;-50
2022/09/13 03:10:05;;;;;;;5.63;4.57;;;15.90;99.90;;;;;;5103642;28;20046;-53
2022/09/13 03:12:49;;;;;;;6.38;4.80;;;15.90;99.90;;;;;;5136264;27;20043;-51
2022/09/13 03:15:38;;;;;;;7.30;4.68;;;15.90;99.90;;;;;;5141847;27;20046;-55
2022/09/13 03:18:23;;;;;;;6.75;4.88;;;15.90;99.90;;;;;;5106201;28;20039;-49
2022/09/13 03:21:11;;;;;;;10.02;4.85;;;16.00;99.90;;;;;;5135135;27;20497;-50
2022/09/13 03:23:55;;;;;;;7.78;5.00;;;16.00;99.90;;;;;;5137054;27;20043;-53
2022/09/13 03:26:21;;;;;;;9.45;4.72;;;16.00;99.90;;;;;;5137598;27;20084;-52
2022/09/13 03:28:58;;;;;;;7.90;4.93;;;16.10;99.90;;;;;;5142964;27;20436;-48
2022/09/13 03:31:50;;;;;;;8.65;4.53;;;16.20;99.90;;;;;;5142495;27;20114;-51
2022/09/13 03:34:16;;;;;;;;;;;16.20;99.90;;;;;;5143281;27;20026;-49
2022/09/13 03:36:56;;;;;;;7.60;4.63;;;16.20;99.90;;;;;;5121758;27;20277;-52
2022/09/13 03:39:44;;;;;;;7.65;4.72;;;16.20;99.90;;;;;;5145857;27;20035;-51
2022/09/13 03:42:27;;;;;;;6.93;4.70;;;16.10;99.90;;;;;;5146152;27;20499;-54
2022/09/13 03:44:55;;;;;;;5.45;4.63;;;16.10;99.90;;;;;;5142593;27;20425;-51
2022/09/13 03:47:24;;;;;;;6.28;4.55;;;16.10;99.90;;;;;;5147178;27;20050;-54
2022/09/13 03:49:51;;;;;;;8.27;5.00;;;16.10;99.90;;;;;;5147332;27;20030;-50
2022/09/13 03:52:18;;;;;;;5.32;4.28;;;16.10;99.90;;;;;;5149314;27;20027;-51
2022/09/13 03:54:44;;;;;;;5.90;4.60;;;16.00;99.90;;;;;;5142511;27;20035;-50
2022/09/13 03:57:22;;;;;;;5.88;4.88;;;16.10;99.90;;;;;;5146561;27;20118;-51
2022/09/13 03:59:53;;;;;;;10.40;4.63;;;16.10;99.90;;;;;;5147954;27;20027;-52
2022/09/13 04:02:21;;;;;;;7.07;5.18;;;16.10;99.90;;;;;;5119864;27;20091;-53
2022/09/13 04:04:47;;;;;;;6.93;4.72;;;16.10;99.90;;;;;;5145383;27;20039;-52
2022/09/13 04:07:18;;;;;;;6.40;4.38;;;16.10;99.90;;;;;;5145232;27;20541;-50
2022/09/13 04:09:44;;;;;;;7.00;4.22;;;16.10;99.90;;;;;;5147450;27;20023;-48
2022/09/13 04:12:10;;;;;;;5.72;3.92;;;16.10;99.90;;;;;;5146120;27;20412;-49
2022/09/13 04:14:37;;;;;;;8.02;4.75;;;16.10;99.90;;;;;;5152561;27;20031;-49
2022/09/13 04:17:02;;;;;;;7.03;4.13;;;16.00;99.90;;;;;;5143987;27;20023;-50
2022/09/13 04:19:29;;;;;;;6.75;4.22;;;16.10;99.90;;;;;;5144681;27;20359;-49
2022/09/13 04:21:55;;;;;;;6.03;4.55;;;16.10;99.90;;;;;;5146552;27;20039;-48
2022/09/13 04:24:24;;;;;;;5.53;4.22;;;16.20;99.90;;;;;;5148774;27;20492;-50
2022/09/13 04:26:50;;;;;;;7.45;4.13;;;16.10;99.90;;;;;;5146630;27;20087;-49
2022/09/13 04:29:17;;;;;;;7.25;5.18;;;16.20;99.90;;;;;;5144749;27;20063;-50
2022/09/13 04:31:47;;;;;;;9.57;5.03;;;16.20;99.90;;;;;;5143351;27;20438;-49
2022/09/13 04:34:13;;;;;;;9.95;4.45;;;16.20;99.90;;;;;;5143759;27;20027;-51
2022/09/13 04:36:39;;;;;;;7.07;4.78;;;16.10;99.90;;;;;;5149049;27;20039;-53
2022/09/13 04:39:06;;;;;;;10.55;5.10;;;15.90;99.90;;;;;;5145593;27;20095;-50
2022/09/13 04:41:33;;;;;;;9.10;5.10;;;15.80;99.90;;;;;;5141995;27;20023;-49
2022/09/13 04:44:00;;;;;;;11.95;5.22;;;15.70;99.90;;;;;;5145764;27;20100;-50
2022/09/13 04:46:26;;;;;;;8.23;4.72;;;15.90;99.90;;;;;;5148378;27;20035;-53
2022/09/13 04:48:53;;;;;;;8.55;6.03;;;15.90;99.90;;;;;;5147367;27;20019;-52
2022/09/13 04:51:20;;;;;;;6.57;5.07;;;15.90;99.90;;;;;;5153074;27;20019;-51
2022/09/13 04:53:51;;;;;;;8.02;5.32;;;16.00;99.90;;;;;;5135512;27;20035;-47
2022/09/13 04:56:18;;;;;;;10.40;5.60;;;16.00;99.90;;;;;;5141502;27;20038;-51
2022/09/13 04:58:44;;;;;;;7.40;5.18;;;16.00;99.90;;;;;;5114348;27;20435;-51
2022/09/13 05:01:10;;;;;;;11.25;6.15;;;16.10;99.90;;;;;;5149614;27;20084;-51
2022/09/13 05:03:37;;;;;;;14.18;6.10;;;16.20;99.90;;;;;;5145583;27;20038;-51
2022/09/13 05:06:05;;;;;;;6.15;5.55;;;16.30;99.90;;;;;;5145981;27;20034;-50
2022/09/13 05:08:31;;;;;;;9.05;6.20;;;16.30;99.90;;;;;;5118450;27;20481;-52
2022/09/13 05:10:57;;;;;;;8.77;5.75;;;16.40;99.90;;;;;;5118028;27;20381;-50
2022/09/13 05:13:23;;;;;;;8.57;5.03;;;16.50;99.90;;;;;;5145201;27;20047;-49
2022/09/13 05:15:53;;;;;;;10.05;5.60;;;16.60;99.90;;;;;;5144815;27;20113;-48
2022/09/13 05:18:19;;;;;;;6.97;5.10;;;16.60;99.90;;;;;;5152150;27;20026;-50
2022/09/13 05:20:44;;;;;;;6.55;5.22;;;16.60;99.90;;;;;;5142779;27;20034;-48
2022/09/13 05:23:10;;;;;;;5.63;4.53;;;16.60;99.90;;;;;;5116911;27;20035;-51
2022/09/13 05:25:36;;;;;;;7.82;4.80;;;16.60;99.90;;;;;;5145440;27;20041;-49
2022/09/13 05:28:01;;;;;;;7.70;4.88;;;16.60;99.90;;;;;;5149280;27;20026;-53
2022/09/13 05:30:27;;;;;;;10.63;4.93;;;16.50;99.90;;;;;;5145593;27;20030;-53
2022/09/13 05:32:53;;;;;;;7.38;4.35;;;16.60;99.90;;;;;;5140944;27;20413;-51
2022/09/13 05:35:19;;;;;;;13.52;5.30;;;16.60;99.90;;;;;;5117663;27;20043;-51
2022/09/13 05:37:45;;;;;;;10.32;4.72;;;16.60;99.90;;;;;;5146395;27;20386;-49
2022/09/13 05:40:10;;;;;;;5.60;4.13;;;16.70;99.90;;;;;;5113810;27;20031;-49
2022/09/13 05:42:36;;;;;;;8.13;4.78;;;16.80;99.90;;;;;;5151542;27;20034;-48
2022/09/13 05:45:02;;;;;;;9.15;4.70;;;16.80;99.90;;;;;;5143413;27;20034;-52
2022/09/13 05:47:28;;;;;;;7.07;4.57;;;16.80;99.90;;;;;;5142665;27;20028;-48
2022/09/13 05:49:54;;;;;;;6.88;5.15;;;16.90;99.90;;;;;;5151553;27;20027;-51
2022/09/13 05:52:20;;;;;;;8.27;4.90;;;16.90;99.90;;;;;;5110568;27;20466;-49
2022/09/13 05:54:45;;;;;;;7.13;4.47;;;17.00;99.90;;;;;;5143761;27;20035;-51
2022/09/13 05:57:11;;;;;;;7.03;4.38;;;17.10;99.90;;;;;;5142199;27;20062;-52
2022/09/13 05:59:37;;;;;;;8.35;4.70;;;17.10;99.90;;;;;;5142285;27;20063;-54
2022/09/13 06:02:03;;;;;;;7.65;4.55;;;17.10;99.90;;;;;;5153679;27;20458;-51
2022/09/13 06:04:28;;;;;;;7.18;4.28;;;17.20;99.90;;;;;;5144782;27;20035;-53
2022/09/13 06:06:54;;;;;;;6.35;4.28;;;17.30;99.90;;;;;;5095378;27;20057;-52
2022/09/13 06:09:20;;;;;;;6.88;4.85;;;17.50;99.90;;;;;;5111838;27;20375;-53
2022/09/13 06:11:46;;;;;;;6.75;4.78;;;17.60;99.90;;;;;;5114152;27;20046;-49
2022/09/13 06:14:11;;;;;;;7.43;4.88;;;17.70;99.90;;;;;;5094899;27;20146;-50
2022/09/13 06:16:39;;;;;;;9.02;5.10;;;17.80;99.90;;;;;;5117494;27;20047;-50
2022/09/13 06:19:04;;;;;;;7.40;4.68;;;17.80;99.90;;;;;;5107531;28;20038;-52
2022/09/13 06:21:30;;;;;;;6.32;4.93;;;17.90;99.90;;;;;;5140946;27;20027;-52
2022/09/13 06:23:56;;;;;;;7.63;5.28;;;18.00;99.90;;;;;;5142709;27;20091;-51
2022/09/13 06:26:24;;;;;;;8.45;5.00;;;18.10;99.90;;;;;;5144055;27;20026;-52
2022/09/13 06:28:52;;;;;;;7.90;5.28;;;18.10;99.90;;;;;;5147593;27;20026;-52
2022/09/13 06:31:20;;;;;;;8.68;4.88;;;18.10;99.90;;;;;;5146775;27;20028;-54
2022/09/13 06:33:46;;;;;;;6.53;4.60;;;18.50;99.90;;;;;;5150959;27;20378;-52
2022/09/13 06:36:17;;;;;;;10.45;4.70;;;18.80;99.90;;;;;;5144278;27;20060;-51
2022/09/13 06:38:44;;;;;;;7.70;4.22;;;19.20;99.90;;;;;;5143792;27;20031;-50
2022/09/13 06:41:11;;;;;;;9.48;4.40;;;19.40;99.90;;;;;;5142404;27;20019;-49
2022/09/13 06:43:37;;;;;;;7.82;4.55;;;19.40;99.90;;;;;;5095727;27;20042;-51
2022/09/13 06:46:09;;;;;;;8.85;4.88;;;19.60;99.90;;;;;;5136299;27;20027;-49
2022/09/13 06:48:37;;;;;;;5.90;4.03;;;19.60;99.90;;;;;;5134079;27;20031;-48
2022/09/13 06:51:06;;;;;;;6.47;4.30;;;19.60;99.90;;;;;;5136157;27;20080;-51
2022/09/13 06:53:33;;;;;;;8.35;4.05;;;19.60;99.90;;;;;;5047906;28;20433;-49
2022/09/13 06:56:21;;;;;;;6.15;4.70;;;19.70;99.90;;;;;;5075709;28;20032;-48
2022/09/13 06:58:49;;;;;;;12.93;5.00;;;19.70;99.90;;;;;;5077876;28;20052;-47
2022/09/13 07:01:21;;;;;;;8.63;5.10;;;19.70;99.90;;;;;;5080483;28;20373;-49
2022/09/13 07:04:14;;;;;;;6.80;4.70;;;;;;;;;;5078857;28;20048;-49
2022/09/13 07:06:42;;;;;;;7.97;4.63;;;19.80;99.90;;;;;;5076210;28;20036;-49
2022/09/13 07:09:11;;;;;;;9.55;6.28;;;19.80;99.90;;;;;;5078735;28;20069;-49
2022/09/13 07:11:39;;;;;;;9.20;5.80;;;20.00;99.90;;;;;;5082176;28;20028;-64
2022/09/13 07:14:08;;;;;;;11.07;4.65;;;19.90;99.90;;;;;;5082259;28;20044;-58
2022/09/13 07:16:36;;;;;;;9.55;5.18;;;;;;;;;;5088564;28;20472;-52
2022/09/13 07:19:06;;;;;;;5.82;4.15;;;;;;;;;;5055297;28;20032;-55
2022/09/13 07:21:33;;;;;;;7.22;5.00;;;;;;;;;;5066482;28;20036;-57
2022/09/13 07:24:03;;;;;;;6.88;4.20;;;20.30;99.90;;;;;;5096378;27;20141;-53
2022/09/13 07:26:30;;;;;;;10.82;6.82;;;;;;;;;;5147636;27;20035;-56
2022/09/13 07:28:57;;;;;;;7.65;4.65;;;;;;;;;;5148951;27;20030;-63
2022/09/13 07:31:33;;;;;;;6.30;4.70;;;20.70;99.90;;;;;;5148051;27;20020;-56
2022/09/13 07:34:01;;;;;;;9.20;5.07;;;20.60;99.90;;;;;;5148034;27;20026;-58
2022/09/13 07:36:29;;;;;;;8.13;5.00;;;20.90;99.90;;;;;;5142810;27;20031;-55
2022/09/13 07:38:56;;;;;;;10.52;4.32;;;21.20;99.90;;;;;;5144384;27;20470;-59
2022/09/13 07:41:23;;;;;;;4.95;4.05;;;21.00;99.90;;;;;;5145734;27;20027;-56
2022/09/13 07:43:50;;;;;;;8.68;4.60;;;21.60;99.90;;;;;;5144187;27;20049;-61
2022/09/13 07:46:23;;;;;;;6.38;4.10;;;;;;;;;;5150023;27;20106;-57
2022/09/13 07:48:52;;;;;;;9.88;4.40;;;21.50;99.90;;;;;;5142885;27;20022;-55
2022/09/13 07:51:19;;;;;;;6.55;3.80;;;;;;;;;;5138807;27;20470;-56
2022/09/13 07:53:46;;;;;;;5.85;3.85;;;;;;;;;;5139462;27;20035;-53
2022/09/13 07:56:16;;;;;;;5.05;4.07;;;;;;;;;;5144419;27;20026;-58
2022/09/13 07:58:43;;;;;;;9.32;4.13;;;;;;;;;;5146527;27;20035;-55
2022/09/13 08:01:14;;;;;;;4.72;3.63;;;22.80;99.90;;;;;;5146274;27;20030;-58
2022/09/13 08:03:40;;;;;;;8.50;4.35;;;23.10;99.90;;;;;;5151271;27;20034;-57
2022/09/13 08:06:06;;;;;;;7.53;4.10;;;23.30;99.90;;;;;;5098679;27;20034;-57
2022/09/13 08:08:33;;;;;;;6.90;4.18;;;;;;;;;;5141642;27;20595;-58
2022/09/13 08:11:01;;;;;;;8.52;4.10;;;23.10;99.90;;;;;;5146342;27;20026;-52
2022/09/13 08:13:27;;;;;;;6.65;3.42;;;;;;;;;;5141645;27;20038;-52
2022/09/13 08:15:54;;;;;;;7.15;4.07;;;;;;;;;;5150211;27;20607;-63
2022/09/13 08:18:20;;;;;;;7.72;3.95;;;23.90;99.90;;;;;;5141894;27;20082;-57
2022/09/13 08:20:46;;;;;;;6.47;4.00;;;24.00;99.90;;;;;;5109210;27;20047;-58
2022/09/13 08:23:13;;;;;;;6.47;4.30;;;24.00;99.90;;;;;;5099412;27;20034;-62
2022/09/13 08:25:39;;;;;;;4.78;3.53;;;;;;;;;;5142626;27;20027;-59
2022/09/13 08:28:06;;;;;;;6.68;3.70;;;;;;;;;;5140538;27;20031;-57
2022/09/13 08:30:35;;;;;;;4.20;3.08;;;24.80;99.90;;;;;;5130364;27;20054;-56
2022/09/13 08:33:02;;;;;;;4.22;2.97;;;;;;;;;;5141738;27;20108;-56
2022/09/13 08:35:29;;;;;;;3.25;2.75;;;;;;;;;;5145742;27;20026;-58
2022/09/13 08:37:55;;;;;;;4.45;2.80;;;;;;;;;;5143608;27;20015;-57
2022/09/13 08:40:23;;;;;;;5.60;3.00;;;25.90;99.90;;;;;;5149617;27;20030;-57
2022/09/13 08:42:58;;;;;;;4.55;3.60;;;;;;;;;;5143227;27;20027;-60
2022/09/13 08:45:24;;;;;;;4.55;3.35;;;25.80;99.90;;;;;;5141187;27;20451;-55
2022/09/13 08:48:01;;;;;;;4.75;3.17;;;;;;;;;;5059949;27;20031;-56
2022/09/13 08:50:33;;;;;;;6.97;3.30;;;26.00;99.90;;;;;;5114364;27;20047;-57
2022/09/13 08:53:06;;;;;;;5.13;2.85;;;26.40;99.90;;;;;;5123001;27;20504;-52
2022/09/13 08:55:50;;;;;;;6.50;2.70;;;26.40;99.90;;;;;;5119931;27;20058;-57
2022/09/13 08:58:37;;;;;;;6.07;2.80;;;26.80;99.90;;;;;;5123646;27;20033;-59
2022/09/13 09:01:12;;;;;;;7.25;3.80;;;26.80;99.90;;;;;;5126565;27;20046;-57
2022/09/13 09:04:10;;;;;;;4.35;2.80;;;26.50;99.90;;;;;;5119698;27;20126;-56
2022/09/13 09:06:36;;;;;;;5.53;2.47;;;27.20;99.90;;;;;;5077051;27;20338;-51
2022/09/13 09:09:06;;;;;;;3.40;2.67;;;27.00;99.90;;;;;;5079393;27;20517;-53
2022/09/13 09:11:58;;;;;;;5.25;2.97;;;27.10;99.90;;;;;;5085474;27;20066;-58
2022/09/13 09:14:30;;;;;;;;;;;27.00;99.90;;;;;;5118453;27;20043;-56
2022/09/13 09:17:05;;;;;;;3.33;2.67;;;26.70;99.90;;;;;;5110746;27;20189;-57
2022/09/13 09:19:42;;;;;;;4.45;2.90;;;26.90;99.90;;;;;;5122698;27;20115;-56
2022/09/13 09:22:13;;;;;;;3.65;2.70;;;;;;;;;;5119513;27;20510;-62
2022/09/13 09:24:43;;;;;;;3.35;2.75;;;27.30;99.90;;;;;;5119375;27;20051;-59
2022/09/13 09:27:14;;;;;;;4.88;2.70;;;27.50;99.90;;;;;;5119384;27;20034;-60
2022/09/13 09:29:45;;;;;;;3.53;2.90;;;27.60;99.90;;;;;;5122800;27;20023;-53
2022/09/13 09:32:29;;;;;;;3.58;2.65;;;;;;;;;;5104125;27;20109;-54
2022/09/13 09:35:35;;;;;;;3.38;2.50;;;27.90;99.90;;;;;;5121560;27;20039;-58
2022/09/13 09:38:18;;;;;;;3.90;2.63;;;27.20;99.50;;;;;;5121652;27;20042;-54
2022/09/13 09:40:45;;;;;;;4.55;3.03;;;;;;;;;;5119024;27;20032;-55
2022/09/13 09:43:17;;;;;;;4.25;2.60;;;;;;;;;;5122494;27;20030;-56
2022/09/13 09:45:44;;;;;;;3.38;2.38;;;;;;;;;;5118877;27;20039;-62
2022/09/13 09:48:15;;;;;;;5.45;2.97;;;27.50;99.90;;;;;;5117048;27;20039;-52
2022/09/13 09:50:49;;;;;;;3.17;2.20;;;27.00;99.50;;;;;;5118196;27;20112;-63
2022/09/13 09:53:32;;;;;;;11.73;9.48;;;26.10;99.10;;;;;;5098835;27;20059;-54
2022/09/13 09:56:22;;;;;;;4.03;2.63;;;27.20;99.90;;;;;;5098874;28;20387;-60
2022/09/13 09:58:48;;;;;;;3.03;2.67;;;;;;;;;;5094889;28;20122;-54
2022/09/13 10:01:17;;;;;;;2.83;2.22;;;;;;;;;;5106467;27;20131;-63
2022/09/13 10:03:49;;;;;;;3.17;2.30;;;;;;;;;;5122152;27;20079;-59
2022/09/13 10:06:15;;;;;;;;;;;;;;;;;;5120166;27;20662;-51
2022/09/13 10:08:42;;;;;;;4.65;2.22;;;;;;;;;;5123652;27;19912;-59
2022/09/13 10:11:09;;;;;;;3.58;2.53;;;;;;;;;;5124564;27;20027;-61
2022/09/13 10:13:37;;;;;;;3.33;2.30;;;27.40;99.90;;;;;;5093622;27;20171;-58
2022/09/13 10:16:21;;;;;;;4.65;2.63;;;;;;;;;;5126835;27;20019;-61
2022/09/13 10:18:47;;;;;;;4.47;2.40;;;;;;;;;;5123325;27;20037;-54
2022/09/13 10:21:19;;;;;;;3.67;2.25;;;;;;;;;;5120335;27;20035;-58
2022/09/13 10:23:49;;;;;;;4.18;2.35;;;;;;;;;;5128085;28;20046;-55
2022/09/13 10:26:25;;;;;;;3.92;2.17;;;;;;;;;;5120420;28;20031;-56
2022/09/13 10:28:56;;;;;;;5.53;2.88;;;28.40;99.90;;;;;;5124193;28;20042;-58
2022/09/13 10:31:29;;;;;;;5.13;2.78;;;28.50;96.90;;;;;;5122403;27;20455;-55
2022/09/13 10:33:59;;;;;;;5.75;2.28;;;28.10;97.40;;;;;;5140031;27;20092;-55
2022/09/13 10:36:29;;;;;;;3.60;2.72;;;28.50;96.70;;;;;;5117583;27;20168;-55
2022/09/13 10:39:11;;;;;;;2.97;2.28;;;28.40;96.50;;;;;;5146507;27;20030;-55
2022/09/13 10:41:44;;;;;;;2.58;2.28;;;;;;;;;;5115126;27;20508;-56
2022/09/13 10:44:33;;;;;;;3.15;2.50;;;28.60;99.90;;;;;;5147945;27;20130;-58
2022/09/13 10:47:03;;;;;;;3.67;2.30;;;28.50;95.50;;;;;;5144613;27;20023;-60
2022/09/13 10:49:48;;;;;;;2.90;2.38;;;;;;;;;;5113584;27;20051;-51
2022/09/13 10:52:23;;;;;;;6.00;3.20;;;;;;;;;;5142869;27;20027;-52
2022/09/13 10:54:49;;;;;;;4.03;2.30;;;30.30;95.40;;;;;;5141033;27;20489;-57
2022/09/13 10:57:36;;;;;;;4.07;2.50;;;;;;;;;;5079253;27;20039;-59
2022/09/13 11:00:09;;;;;;;5.60;2.20;;;;;;;;;;5140843;27;20034;-55
2022/09/13 11:02:53;;;;;;;4.95;2.47;;;;;;;;;;5144068;27;20042;-54
2022/09/13 11:05:28;;;;;;;5.03;2.60;;;;;;;;;;5147373;27;20103;-59
2022/09/13 11:08:31;;;;;;;3.28;2.30;;;30.70;92.80;;;;;;5128548;27;20486;-60
2022/09/13 11:11:01;;;;;;;4.10;2.60;;;;;;;;;;5140226;27;21091;-58
2022/09/13 11:13:27;;;;;;;3.10;2.10;;;;;;;;;;5124782;27;20054;-62
2022/09/13 11:15:57;;;;;;;4.35;2.40;;;;;;;;;;5143727;27;20027;-58
2022/09/13 11:18:39;;;;;;;3.25;2.72;;;;;;;;;;5127150;27;20042;-59
2022/09/13 11:21:24;;;;;;;4.20;2.35;;;;;;;;;;5142000;27;20027;-52
2022/09/13 11:23:50;;;;;;;4.18;2.30;;;;;;;;;;5143090;27;20545;-58
2022/09/13 11:26:28;;;;;;;3.92;2.40;;;;;;;;;;5141177;27;20358;-61
2022/09/13 11:29:10;;;;;;;3.50;2.60;;;31.60;99.90;;;;;;5147961;27;20168;-56
2022/09/13 11:31:47;;;;;;;4.55;2.35;;;;;;;;;;5143123;27;20510;-59
2022/09/13 11:34:19;;;;;;;3.28;2.60;;;;;;;;;;5113052;27;20060;-59
2022/09/13 11:36:57;;;;;;;4.97;2.85;;;30.90;92.50;;;;;;5142423;27;20109;-58
2022/09/13 11:39:42;;;;;;;6.03;2.42;;;31.00;93.20;;;;;;5141742;27;20019;-54
2022/09/13 11:42:38;;;;;;;4.35;2.28;;;30.90;93.10;;;;;;5145821;27;20031;-53
2022/09/13 11:45:25;;;;;;;2.90;2.42;;;31.20;92.30;;;;;;5141400;27;20394;-58
2022/09/13 11:48:06;;;;;;;4.53;2.85;;;30.60;92.80;;;;;;5111947;27;20494;-61
2022/09/13 11:50:53;;;;;;;4.07;2.90;;;30.50;92.90;;;;;;5141931;27;20113;-55
2022/09/13 11:53:40;;;;;;;4.45;2.40;;;;;;;;;;5144269;27;20019;-57
2022/09/13 11:56:10;;;;;;;5.28;3.00;;;;;;;;;;5142954;27;20022;-57
2022/09/13 11:58:50;;;;;;;5.03;3.20;;;31.20;91.00;;;;;;5143429;27;20454;-57
2022/09/13 12:01:41;;;;;;;3.78;2.30;;;31.20;96.40;;;;;;5142628;27;20167;-58
2022/09/13 12:04:12;;;;;;;2.60;2.33;;;;;;;;;;5142292;27;20066;-55
2022/09/13 12:06:49;;;;;;;3.08;1.80;;;;;;;;;;5107907;27;20051;-54
2022/09/13 12:09:25;;;;;;;3.90;2.10;;;;;;;;;;5105330;27;20437;-54
2022/09/13 12:11:54;;;;;;;3.92;2.00;;;;;;;;;;5111003;27;20039;-51
2022/09/13 12:14:25;;;;;;;3.10;1.50;;;;;;;;;;5112063;27;20044;-54
2022/09/13 12:16:58;;;;;;;2.22;1.95;;;;;;;;;;5105880;27;20146;-51
2022/09/13 12:19:29;;;;;;;3.15;2.13;;;;;;;;;;5105880;27;20503;-54
2022/09/13 12:21:58;;;;;;;2.13;1.92;;;32.40;98.30;;;;;;5105882;27;20027;-49
2022/09/13 12:24:42;;;;;;;3.78;1.77;;;31.70;91.30;;;;;;5074872;28;20452;-52
2022/09/13 12:27:51;;;;;;;2.58;1.92;;;31.70;90.80;;;;;;5046383;28;20216;-53
2022/09/13 12:30:18;;;;;;;3.20;1.80;;;;;;;;;;5046629;28;20040;-52
2022/09/13 12:32:46;;;;;;;2.38;1.70;;;;;;;;;;5046815;28;20393;-53
2022/09/13 12:35:26;;;;;;;2.75;1.95;;;;;;;;;;5049018;28;20116;-53
2022/09/13 12:37:55;;;;;;;3.28;2.15;;;;;;;;;;5047089;28;20504;-54
2022/09/13 12:40:57;;;;;;;3.75;2.03;;;31.60;89.00;;;;;;5049289;28;20068;-52
2022/09/13 12:43:41;;;;;;;2.17;1.77;;;31.90;88.70;;;;;;5025830;28;20502;-53
2022/09/13 12:46:31;;;;;;;3.90;2.05;;;31.90;89.40;;;;;;5054055;28;20047;-52
2022/09/13 12:49:23;;;;;;;3.00;1.70;;;31.30;88.10;;;;;;5088487;28;20060;-53
2022/09/13 12:52:11;;;;;;;5.25;2.10;;;31.20;90.40;;;;;;5088023;28;20024;-56
2022/09/13 12:55:14;;;;;;;2.50;1.58;;;31.10;90.00;;;;;;5037802;28;20040;-51
2022/09/13 12:58:05;;;;;;;2.20;1.90;;;31.40;90.10;;;;;;5041211;28;20044;-52
2022/09/13 13:00:58;;;;;;;3.50;1.92;;;31.70;88.40;;;;;;5068604;28;20032;-53
2022/09/13 13:03:30;;;;;;;2.30;1.60;;;31.70;87.70;;;;;;5068186;28;20041;-51
2022/09/13 13:06:09;;;;;;;1.95;1.60;;;32.00;88.70;;;;;;5068721;28;20036;-53
2022/09/13 13:08:35;;;;;;;2.03;1.48;;;;;;;;;;5066732;28;20041;-52
2022/09/13 13:11:11;;;;;;;1.50;1.40;;;32.10;88.50;;;;;;5068968;28;20032;-49
2022/09/13 13:13:42;;;;;;;3.08;1.60;;;;;;;;;;5066129;28;20052;-52
2022/09/13 13:16:36;;;;;;;1.98;1.60;;;30.70;88.70;;;;;;5067680;28;20048;-54
2022/09/13 13:19:27;;;;;;;4.55;1.70;;;30.60;99.90;;;;;;5068817;28;20122;-54
2022/09/13 13:21:56;;;;;;;2.00;1.77;;;29.40;90.30;;;;;;5067534;28;20472;-51
2022/09/13 13:24:21;;;;;;;2.72;2.10;;;29.20;91.20;;;;;;5051898;28;20106;-54
2022/09/13 13:26:53;;;;;;;3.45;2.10;;;29.10;91.60;;;;;;5066533;28;20501;-53
2022/09/13 13:29:31;;;;;;;;;;;28.70;90.60;;;;;;5057038;28;20025;-48
2022/09/13 13:31:56;;;;;;;6.85;4.70;;;28.70;91.70;;;;;;5067411;28;19916;-52
2022/09/13 13:34:25;;;;;;;6.57;1.80;;;28.70;90.70;;;;;;5092534;27;20031;-52
2022/09/13 13:36:58;;;;;;;4.35;1.52;;;28.60;90.30;;;;;;5114164;27;20070;-52
2022/09/13 13:39:24;;;;;;;3.45;1.70;;;28.50;90.20;;;;;;5112123;27;20039;-53
2022/09/13 13:42:00;;;;;;;2.08;1.75;;;28.50;91.10;;;;;;5144055;27;20030;-52